Time;durP1;ratioP1;P1;durP2;ratioP2;P2;SDS_P1;SDS_P2;PMS_P1;PMS_P2;Temp;Humidity;BMP_temperature;BMP_pressure;BME280_temperature;BME280_humidity;BME280_pressure;Samples;Min_cycle;Max_cycle;Signal;HPM_P1;HPM_P2
2023/12/06 00:02:02;;;;;;;120.00;47.80;;;;;;;;;;5071897;28;20396;-83
2023/12/06 00:04:30;;;;;;;119.88;49.03;;;;;;;;;;5071779;28;20404;-82
2023/12/06 00:06:56;;;;;;;124.10;48.65;;;;;;;;;;5036992;28;20462;-83
2023/12/06 00:09:22;;;;;;;124.97;48.97;;;;;;;;;;5055348;28;20490;-83
2023/12/06 00:11:48;;;;;;;122.18;47.50;;;;;;;;;;5071442;28;20411;-83
2023/12/06 00:14:14;;;;;;;123.90;48.05;;;;;;;;;;5070681;28;20423;-82
2023/12/06 00:16:40;;;;;;;126.83;48.73;;;;;;;;;;5055139;28;20407;-82
2023/12/06 00:19:06;;;;;;;125.55;50.35;;;;;;;;;;5071086;28;20486;-82
2023/12/06 00:21:33;;;;;;;121.53;48.07;;;;;;;;;;5070955;28;20400;-82
2023/12/06 00:23:59;;;;;;;121.95;49.38;;;;;;;;;;5053678;28;20434;-82
2023/12/06 00:26:25;;;;;;;126.13;49.35;;;;;;;;;;5087866;28;20453;-81
2023/12/06 00:28:53;;;;;;;125.43;48.97;;;;;;;;;;5071682;28;20878;-81
2023/12/06 00:31:19;;;;;;;122.55;48.72;;;;;;;;;;5054721;28;20755;-83
2023/12/06 00:33:45;;;;;;;126.05;47.42;;;;;;;;;;5054622;28;20482;-82
2023/12/06 00:36:11;;;;;;;119.15;48.10;;;;;;;;;;5054382;28;20404;-82
2023/12/06 00:38:37;;;;;;;124.93;48.20;;;;;;;;;;5053962;28;20480;-82
2023/12/06 00:41:04;;;;;;;119.97;48.15;;;;;;;;;;5069766;28;20439;-81
2023/12/06 00:43:30;;;;;;;130.27;49.43;;;;;;;;;;5070447;28;20446;-83
2023/12/06 00:45:56;;;;;;;120.60;47.95;;;;;;;;;;5054099;28;20392;-82
2023/12/06 00:48:22;;;;;;;124.25;49.65;;;;;;;;;;5071358;28;20407;-82
2023/12/06 00:50:48;;;;;;;120.50;48.97;;;;;;;;;;5053548;28;20414;-82
2023/12/06 00:53:14;;;;;;;123.75;48.42;;;;;;;;;;5054102;28;20396;-82
2023/12/06 00:55:40;;;;;;;117.25;48.60;;;;;;;;;;5052427;28;20423;-83
2023/12/06 00:58:06;;;;;;;120.63;48.63;;;;;;;;;;5071062;28;20404;-82
2023/12/06 01:00:32;;;;;;;112.43;46.75;;;;;;;;;;5070915;28;20411;-81
2023/12/06 01:02:58;;;;;;;113.00;46.95;;;;;;;;;;5070548;28;20402;-82
2023/12/06 01:05:24;;;;;;;113.97;47.70;;;;;;;;;;5070075;28;20537;-81
2023/12/06 01:07:50;;;;;;;118.43;47.78;;;;;;;;;;5070207;28;20533;-82
2023/12/06 01:10:16;;;;;;;115.88;46.38;;;;;;;;;;5070185;28;20411;-82
2023/12/06 01:12:42;;;;;;;113.38;46.47;;;;;;;;;;5085878;28;20430;-82
2023/12/06 01:15:09;;;;;;;111.22;45.88;;;;;;;;;;5037239;28;20430;-82
2023/12/06 01:17:35;;;;;;;117.45;46.55;;;;;;;;;;5070485;28;20431;-82
2023/12/06 01:20:02;;;;;;;109.63;46.10;;;;;;;;;;5087917;28;20407;-82
2023/12/06 01:22:28;;;;;;;114.57;46.20;;;;;;;;;;5053793;28;20426;-82
2023/12/06 01:25:00;;;;;;;108.13;45.70;;;;;;;;;;5070688;28;20411;-82
2023/12/06 01:27:27;;;;;;;112.03;46.00;;;;;;;;;;5086547;28;20406;-82
2023/12/06 01:29:53;;;;;;;113.10;46.03;;;;;;;;;;5085851;28;20419;-82
2023/12/06 01:32:19;;;;;;;109.00;45.13;;;;;;;;;;5086257;28;20400;-83
2023/12/06 01:34:45;;;;;;;108.78;44.63;;;;;;;;;;5086799;28;20942;-83
2023/12/06 01:37:11;;;;;;;107.43;45.10;;;;;;;;;;5052119;28;20451;-83
2023/12/06 01:39:37;;;;;;;110.03;45.92;;;;;;;;;;5069034;28;20404;-82
2023/12/06 01:42:04;;;;;;;108.15;45.72;;;;;;;;;;5069711;28;20533;-83
2023/12/06 01:44:30;;;;;;;106.40;43.85;;;;;;;;;;5086920;28;20412;-84
2023/12/06 01:46:56;;;;;;;103.35;45.10;;;;;;;;;;5052341;28;20477;-82
2023/12/06 01:49:22;;;;;;;100.03;44.20;;;;;;;;;;5052006;28;20407;-83
2023/12/06 01:51:48;;;;;;;101.30;44.25;;;;;;;;;;5052101;28;20461;-82
2023/12/06 01:54:14;;;;;;;100.22;43.85;;;;;;;;;;5036887;28;20810;-83
2023/12/06 01:56:42;;;;;;;99.22;43.75;;;;;;;;;;5069790;28;20419;-83
2023/12/06 01:59:10;;;;;;;100.88;43.78;;;;;;;;;;5070036;28;20406;-83
2023/12/06 02:01:36;;;;;;;104.90;44.45;;;;;;;;;;5067915;28;20453;-83
2023/12/06 02:04:02;;;;;;;102.72;43.65;;;;;;;;;;5053155;28;20412;-83
2023/12/06 02:06:28;;;;;;;99.23;42.97;;;;;;;;;;5069417;28;20930;-83
2023/12/06 02:08:55;;;;;;;102.07;44.63;;;;;;;;;;5052367;28;20486;-82
2023/12/06 02:11:21;;;;;;;103.43;44.33;;;;;;;;;;5072255;28;20414;-83
2023/12/06 02:13:47;;;;;;;99.60;43.83;;;;;;;;;;5056089;28;20423;-82
2023/12/06 02:16:14;;;;;;;99.70;44.17;;;;;;;;;;5040900;28;20418;-83
2023/12/06 02:18:40;;;;;;;96.00;42.93;;;;;;;;;;5072472;28;20415;-82
2023/12/06 02:21:06;;;;;;;98.32;43.75;;;;;;;;;;5073000;28;20407;-81
2023/12/06 02:23:35;;;;;;;95.47;42.55;;;;;;;;;;5090794;28;20874;-82
2023/12/06 02:26:01;;;;;;;89.93;41.35;;;;;;;;;;5056274;28;20403;-82
2023/12/06 02:28:27;;;;;;;88.93;41.38;;;;;;;;;;5053825;28;20757;-83
2023/12/06 02:30:53;;;;;;;85.72;40.83;;;;;;;;;;5086568;28;20751;-82
2023/12/06 02:33:20;;;;;;;92.35;40.85;;;;;;;;;;5073878;28;20427;-82
2023/12/06 02:35:48;;;;;;;86.32;41.00;;;;;;;;;;5086001;28;20427;-81
2023/12/06 02:38:17;;;;;;;91.82;41.45;;;;;;;;;;5073952;28;20465;-82
2023/12/06 02:40:44;;;;;;;88.47;40.58;;;;;;;;;;5073232;28;20404;-82
2023/12/06 02:43:10;;;;;;;82.40;40.30;;;;;;;;;;5088643;28;20772;-81
2023/12/06 02:45:36;;;;;;;82.53;39.05;;;;;;;;;;5073770;28;20830;-81
2023/12/06 02:48:04;;;;;;;83.47;40.83;;;;;;;;;;5090645;28;20403;-81
2023/12/06 02:50:30;;;;;;;87.57;40.33;;;;;;;;;;5089417;28;20404;-82
2023/12/06 02:52:57;;;;;;;83.30;40.38;;;;;;;;;;5039540;28;20439;-82
2023/12/06 02:55:23;;;;;;;80.75;39.70;;;;;;;;;;5072299;28;20424;-83
2023/12/06 02:57:49;;;;;;;81.05;38.95;;;;;;;;;;5072959;28;20408;-82
2023/12/06 03:00:15;;;;;;;80.13;39.33;;;;;;;;;;5051974;28;20482;-82
2023/12/06 03:02:41;;;;;;;69.35;36.47;;;;;;;;;;5086905;28;20438;-81
2023/12/06 03:05:07;;;;;;;70.13;37.15;;;;;;;;;;5089351;28;20404;-82
2023/12/06 03:07:33;;;;;;;73.75;37.08;;;;;;;;;;5055867;28;20407;-82
2023/12/06 03:09:59;;;;;;;72.43;37.80;;;;;;;;;;5072706;28;20542;-82
2023/12/06 03:12:25;;;;;;;68.43;34.70;;;;;;;;;;5056343;28;20582;-83
2023/12/06 03:14:51;;;;;;;64.80;35.55;;;;;;;;;;5055021;28;20499;-83
2023/12/06 03:17:17;;;;;;;66.00;35.58;;;;;;;;;;5072376;28;20420;-83
2023/12/06 03:19:43;;;;;;;65.77;34.80;;;;;;;;;;5072340;28;20446;-82
2023/12/06 03:22:09;;;;;;;60.00;33.78;;;;;;;;;;5089167;28;20396;-82
2023/12/06 03:24:35;;;;;;;66.85;34.83;;;;;;;;;;5056466;28;20737;-83
2023/12/06 03:27:02;;;;;;;60.35;33.30;;;;;;;;;;5055588;28;20744;-82
2023/12/06 03:29:28;;;;;;;60.63;33.10;;;;;;;;;;5090112;28;20403;-82
2023/12/06 03:31:54;;;;;;;60.22;33.63;;;;;;;;;;5055595;28;20988;-81
2023/12/06 03:34:20;;;;;;;57.90;33.33;;;;;;;;;;5069916;28;20919;-82
2023/12/06 03:36:46;;;;;;;54.35;32.70;;;;;;;;;;5055188;28;20410;-81
2023/12/06 03:39:12;;;;;;;57.38;32.83;;;;;;;;;;5072454;28;20436;-82
2023/12/06 03:41:38;;;;;;;52.88;31.50;;;;;;;;;;5072111;28;20407;-82
2023/12/06 03:44:04;;;;;;;53.67;31.88;;;;;;;;;;5071944;28;20415;-82
2023/12/06 03:46:30;;;;;;;52.22;29.92;;;;;;;;;;5072710;28;20400;-82
2023/12/06 03:48:57;;;;;;;49.75;30.55;;;;;;;;;;5071871;28;20443;-82
2023/12/06 03:51:23;;;;;;;51.10;30.20;;;;;;;;;;5054787;28;20511;-83
2023/12/06 03:53:49;;;;;;;47.38;30.17;;;;;;;;;;5039075;28;20426;-82
2023/12/06 03:56:15;;;;;;;51.13;30.50;;;;;;;;;;5055793;28;20424;-82
2023/12/06 03:58:41;;;;;;;51.53;30.13;;;;;;;;;;5039474;28;20399;-83
2023/12/06 04:01:07;;;;;;;52.75;30.08;;;;;;;;;;5055878;28;20396;-83
2023/12/06 04:03:34;;;;;;;57.30;31.33;;;;;;;;;;5055249;28;20400;-83
2023/12/06 04:06:00;;;;;;;54.03;30.98;;;;;;;;;;5071526;28;20400;-82
2023/12/06 04:08:26;;;;;;;54.20;31.00;;;;;;;;;;5054477;28;20602;-84
2023/12/06 04:10:52;;;;;;;56.05;31.27;;;;;;;;;;5054903;28;20412;-83
2023/12/06 04:13:18;;;;;;;50.40;30.77;;;;;;;;;;5055811;28;20733;-82
2023/12/06 04:15:44;;;;;;;53.92;31.13;;;;;;;;;;5054675;28;20473;-82
2023/12/06 04:18:10;;;;;;;56.30;31.83;;;;;;;;;;5068675;28;20431;-82
2023/12/06 04:20:36;;;;;;;56.38;32.40;;;;;;;;;;5088842;28;20470;-81
2023/12/06 04:23:02;;;;;;;55.03;31.85;;;;;;;;;;5054361;28;20420;-81
2023/12/06 04:25:28;;;;;;;56.83;32.25;;;;;;;;;;5054687;28;20419;-81
2023/12/06 04:27:54;;;;;;;60.05;33.38;;;;;;;;;;5054205;28;20826;-81
2023/12/06 04:30:20;;;;;;;62.88;33.25;;;;;;;;;;5071721;28;20400;-82
2023/12/06 04:32:46;;;;;;;60.65;33.25;;;;;;;;;;5054438;28;20404;-83
2023/12/06 04:35:13;;;;;;;60.10;33.42;;;;;;;;;;5070038;28;20427;-82
2023/12/06 04:37:39;;;;;;;58.40;32.22;;;;;;;;;;5055123;28;20828;-82
2023/12/06 04:40:05;;;;;;;58.33;33.43;;;;;;;;;;5088722;28;20432;-82
2023/12/06 04:42:32;;;;;;;63.45;34.42;;;;;;;;;;5054960;28;20407;-81
2023/12/06 04:44:58;;;;;;;67.18;34.00;;;;;;;;;;5036933;28;20471;-81
2023/12/06 04:47:24;;;;;;;67.10;34.63;;;;;;;;;;5052636;28;20403;-81
2023/12/06 04:49:50;;;;;;;67.07;34.67;;;;;;;;;;5071274;28;20504;-80
2023/12/06 04:52:16;;;;;;;65.68;34.65;;;;;;;;;;5070965;28;20400;-82
2023/12/06 04:54:42;;;;;;;63.47;35.03;;;;;;;;;;5088396;28;20456;-82
2023/12/06 04:57:08;;;;;;;65.28;34.35;;;;;;;;;;5070889;28;20407;-81
2023/12/06 04:59:34;;;;;;;62.60;34.75;;;;;;;;;;5069638;28;20419;-82
2023/12/06 05:02:00;;;;;;;67.15;35.15;;;;;;;;;;5071140;28;20885;-81
2023/12/06 05:04:27;;;;;;;68.95;35.72;;;;;;;;;;5070879;28;20411;-81
2023/12/06 05:06:53;;;;;;;68.85;34.83;;;;;;;;;;5070754;28;20485;-81
2023/12/06 05:09:19;;;;;;;63.35;34.90;;;;;;;;;;5069994;28;20418;-81
2023/12/06 05:11:45;;;;;;;62.13;34.00;;;;;;;;;;5070581;28;20403;-81
2023/12/06 05:14:11;;;;;;;63.57;33.67;;;;;;;;;;5054138;28;20501;-81
2023/12/06 05:16:37;;;;;;;64.72;35.15;;;;;;;;;;5068320;28;20494;-81
2023/12/06 05:19:04;;;;;;;65.30;35.97;;;;;;;;;;5070506;28;20399;-82
2023/12/06 05:21:30;;;;;;;68.17;35.97;;;;;;;;;;5070635;28;20404;-82
2023/12/06 05:23:56;;;;;;;66.88;35.17;;;;;;;;;;5053884;28;20399;-77
2023/12/06 05:26:24;;;;;;;66.95;35.65;;;;;;;;;;5069512;28;20450;-77
2023/12/06 05:28:50;;;;;;;65.13;35.03;;;;;;;;;;5086664;28;20407;-78
2023/12/06 05:31:16;;;;;;;70.55;36.13;;;;;;;;;;5052937;28;20503;-77
2023/12/06 05:33:42;;;;;;;71.40;36.10;;;;;;;;;;5085259;28;20420;-79
2023/12/06 05:36:09;;;;;;;69.47;36.60;;;;;;;;;;5070379;28;20435;-77
2023/12/06 05:38:35;;;;;;;75.13;36.20;;;;;;;;;;5032688;28;20401;-77
2023/12/06 05:41:01;;;;;;;74.18;35.55;;;;;;;;;;5067391;28;20875;-77
2023/12/06 05:43:27;;;;;;;72.33;36.83;;;;;;;;;;5045694;28;20450;-76
2023/12/06 05:45:53;;;;;;;66.82;35.55;;;;;;;;;;5087341;28;20510;-77
2023/12/06 05:48:19;;;;;;;65.28;35.38;;;;;;;;;;5057409;28;20395;-77
2023/12/06 05:50:45;;;;;;;63.67;35.00;;;;;;;;;;5057684;28;20492;-77
2023/12/06 05:53:12;;;;;;;65.78;34.90;;;;;;;;;;5090388;28;20474;-77
2023/12/06 05:55:38;;;;;;;65.80;35.80;;;;;;;;;;5073836;28;20437;-77
2023/12/06 05:58:05;;;;;;;66.63;35.22;;;;;;;;;;5073916;28;20787;-77
2023/12/06 06:00:31;;;;;;;69.25;36.13;;;;;;;;;;5071912;28;20895;-77
2023/12/06 06:02:59;;;;;;;68.05;36.28;;;;;;;;;;5071975;28;20415;-77
2023/12/06 06:05:25;;;;;;;65.47;35.58;;;;;;;;;;5057536;28;20411;-77
2023/12/06 06:07:52;;;;;;;69.70;36.17;;;;;;;;;;5073663;28;20469;-77
2023/12/06 06:10:18;;;;;;;62.30;33.90;;;;;;;;;;5073087;28;20494;-77
2023/12/06 06:12:44;;;;;;;58.53;33.83;;;;;;;;;;5073373;28;20414;-77
2023/12/06 06:15:10;;;;;;;69.28;34.63;;;;;;;;;;5073246;28;20419;-77
2023/12/06 06:17:36;;;;;;;59.83;33.10;;;;;;;;;;5072678;28;20429;-77
2023/12/06 06:20:02;;;;;;;62.83;33.67;;;;;;;;;;5073041;28;20510;-77
2023/12/06 06:22:28;;;;;;;56.13;32.77;;;;;;;;;;5056794;28;20532;-76
2023/12/06 06:24:54;;;;;;;59.17;32.92;;;;;;;;;;5057465;28;20565;-77
2023/12/06 06:27:20;;;;;;;58.75;32.28;;;;;;;;;;5058137;28;20891;-80
2023/12/06 06:29:47;;;;;;;54.83;32.42;;;;;;;;;;5057649;28;20858;-80
2023/12/06 06:32:13;;;;;;;54.35;31.48;;;;;;;;;;5092214;28;20418;-81
2023/12/06 06:34:39;;;;;;;50.00;29.92;;;;;;;;;;5074773;28;20423;-80
2023/12/06 06:37:05;;;;;;;50.47;30.05;;;;;;;;;;5089427;28;20412;-81
2023/12/06 06:39:31;;;;;;;52.17;30.17;;;;;;;;;;5074801;28;20744;-81
2023/12/06 06:41:58;;;;;;;51.97;30.05;;;;;;;;;;5075210;28;20817;-81
2023/12/06 06:44:24;;;;;;;50.00;29.70;;;;;;;;;;5074099;28;20404;-82
2023/12/06 06:46:51;;;;;;;50.45;28.85;;;;;;;;;;5090049;28;20430;-80
2023/12/06 06:49:17;;;;;;;43.25;27.60;;;;;;;;;;5074484;28;20526;-81
2023/12/06 06:51:44;;;;;;;42.72;27.20;;;;;;;;;;5057619;28;20400;-81
2023/12/06 06:54:10;;;;;;;41.03;26.65;;;;;;;;;;5072106;28;20412;-80
2023/12/06 06:56:37;;;;;;;40.20;26.13;;;;;;;;;;5072910;28;20407;-79
2023/12/06 06:59:03;;;;;;;42.22;25.95;;;;;;;;;;5091740;28;20444;-80
2023/12/06 07:01:29;;;;;;;45.92;26.25;;;;;;;;;;5073161;28;20406;-80
2023/12/06 07:03:55;;;;;;;41.78;25.65;;;;;;;;;;5073934;28;20406;-80
2023/12/06 07:06:21;;;;;;;41.58;25.58;;;;;;;;;;5055873;28;20407;-81
2023/12/06 07:08:49;;;;;;;42.70;27.15;;;;;;;;;;5106858;28;20415;-81
2023/12/06 07:11:16;;;;;;;42.00;27.20;;;;;;;;;;5089542;28;20395;-81
2023/12/06 07:13:42;;;;;;;43.38;26.85;;;;;;;;;;5054022;28;20400;-81
2023/12/06 07:16:10;;;;;;;42.55;26.77;;;;;;;;;;5087244;28;20404;-80
2023/12/06 07:18:36;;;;;;;42.50;26.10;;;;;;;;;;5058859;28;20430;-82
2023/12/06 07:21:03;;;;;;;40.08;25.65;;;;;;;;;;5103833;28;20507;-81
2023/12/06 07:23:29;;;;;;;40.70;25.10;;;;;;;;;;5069258;28;20420;-80
2023/12/06 07:25:55;;;;;;;42.40;26.30;;;;;;;;;;5055032;28;20453;-82
2023/12/06 07:28:21;;;;;;;38.30;24.77;;;;;;;;;;5055827;28;20819;-81
2023/12/06 07:30:47;;;;;;;40.53;25.70;;;;;;;;;;5071284;28;20410;-81
2023/12/06 07:33:14;;;;;;;41.30;25.60;;;;;;;;;;5072117;28;20763;-82
2023/12/06 07:35:40;;;;;;;42.35;25.75;;;;;;;;;;5071511;28;20697;-81
2023/12/06 07:38:09;;;;;;;41.67;26.33;;;;;;;;;;5072115;28;20399;-82
2023/12/06 07:40:35;;;;;;;41.08;25.90;;;;;;;;;;5071262;28;20420;-82
2023/12/06 07:43:02;;;;;;;40.58;26.73;;;;;;;;;;5058119;28;20397;-82
2023/12/06 07:45:28;;;;;;;42.58;26.77;;;;;;;;;;5075130;28;20426;-83
2023/12/06 07:47:54;;;;;;;44.25;26.38;;;;;;;;;;5071206;28;20925;-82
2023/12/06 07:50:20;;;;;;;43.58;26.20;;;;;;;;;;5071747;28;20496;-80
2023/12/06 07:52:47;;;;;;;43.60;26.20;;;;;;;;;;5054576;28;20407;-83
2023/12/06 07:55:14;;;;;;;48.40;25.83;;;;;;;;;;5070873;28;20424;-82
2023/12/06 07:57:40;;;;;;;40.95;26.45;;;;;;;;;;5070661;28;20407;-82
2023/12/06 08:00:11;;;;;;;42.00;25.50;;;;;;;;;;5071017;28;20431;-82
2023/12/06 08:02:39;;;;;;;42.35;25.98;;;;;;;;;;5070482;28;20911;-82
2023/12/06 08:05:10;;;;;;;43.38;25.83;;;;;;;;;;5054304;28;20767;-76
2023/12/06 08:07:37;;;;;;;38.40;24.43;;;;;;;;;;5070791;28;20411;-76
2023/12/06 08:10:12;;;;;;;40.23;24.87;;;;;;;;;;5070467;28;20491;-76
2023/12/06 08:12:38;;;;;;;40.10;24.85;;;;;;;;;;5103438;28;20403;-76
2023/12/06 08:15:05;;;;;;;41.80;24.77;;;;;;;;;;5070808;28;20428;-76
2023/12/06 08:17:31;;;;;;;39.35;25.17;;;;;;;;;;5087948;28;20399;-76
2023/12/06 08:19:57;;;;;;;39.15;24.25;;;;;;;;;;5068249;28;20944;-76
2023/12/06 08:22:23;;;;;;;38.85;24.77;;;;;;;;;;5078916;28;20414;-76
2023/12/06 08:24:50;;;;;;;44.83;25.17;;;;;;;;;;5069408;28;20541;-76
2023/12/06 08:27:17;;;;;;;38.80;24.08;;;;;;;;;;5070717;28;20407;-76
2023/12/06 08:29:43;;;;;;;37.65;24.02;;;;;;;;;;5086628;28;20430;-76
2023/12/06 08:32:09;;;;;;;40.00;25.15;;;;;;;;;;5086454;28;20407;-76
2023/12/06 08:34:35;;;;;;;42.50;25.03;;;;;;;;;;5069531;28;20425;-76
2023/12/06 08:37:02;;;;;;;42.17;25.30;;;;;;;;;;5048958;28;20433;-76
2023/12/06 08:39:28;;;;;;;41.45;24.58;;;;;;;;;;5085281;28;20453;-77
2023/12/06 08:41:54;;;;;;;39.38;24.80;;;;;;;;;;5034568;28;20403;-77
2023/12/06 08:44:20;;;;;;;40.47;24.92;;;;;;;;;;5067725;28;20450;-76
2023/12/06 08:46:46;;;;;;;42.13;24.60;;;;;;;;;;5070257;28;21397;-77
2023/12/06 08:49:13;;;;;;;39.20;23.77;;;;;;;;;;5061761;28;20415;-77
2023/12/06 08:51:39;;;;;;;36.35;22.77;;;;;;;;;;5081695;28;20406;-76
2023/12/06 08:54:05;;;;;;;33.90;22.00;;;;;;;;;;5088236;28;20426;-77
2023/12/06 08:56:32;;;;;;;35.15;23.05;;;;;;;;;;5076652;28;20734;-76
2023/12/06 08:58:59;;;;;;;31.90;21.17;;;;;;;;;;5086299;28;20473;-77
2023/12/06 09:01:25;;;;;;;30.75;21.27;;;;;;;;;;5056042;28;20403;-77
2023/12/06 09:03:52;;;;;;;30.83;21.73;;;;;;;;;;5081631;28;20424;-77
2023/12/06 09:06:18;;;;;;;33.17;20.60;;;;;;;;;;5085996;28;20427;-76
2023/12/06 09:08:44;;;;;;;32.45;21.75;;;;;;;;;;5073832;28;20412;-77
2023/12/06 09:11:10;;;;;;;31.55;20.63;;;;;;;;;;5052603;28;20457;-76
2023/12/06 09:13:37;;;;;;;35.00;22.42;;;;;;;;;;5044252;28;20403;-77
2023/12/06 09:16:03;;;;;;;36.75;23.27;;;;;;;;;;5086631;28;20427;-77
2023/12/06 09:18:29;;;;;;;37.17;22.98;;;;;;;;;;5051451;28;20433;-77
2023/12/06 09:20:55;;;;;;;36.90;23.70;;;;;;;;;;5080705;28;20407;-76
2023/12/06 09:23:21;;;;;;;32.63;21.33;;;;;;;;;;5066342;28;20491;-77
2023/12/06 09:25:47;;;;;;;34.50;22.67;;;;;;;;;;5085153;28;20403;-77
2023/12/06 09:28:14;;;;;;;33.10;21.23;;;;;;;;;;5083841;28;20482;-77
2023/12/06 09:30:40;;;;;;;38.45;25.33;;;;;;;;;;5053069;28;20921;-77
2023/12/06 09:33:06;;;;;;;39.20;25.10;;;;;;;;;;5069195;28;20524;-77
2023/12/06 09:35:32;;;;;;;38.90;25.38;;;;;;;;;;5070181;28;20495;-76
2023/12/06 09:37:58;;;;;;;35.50;24.02;;;;;;;;;;5076191;28;20453;-77
2023/12/06 09:40:24;;;;;;;33.93;21.67;;;;;;;;;;5086068;28;20435;-77
2023/12/06 09:42:54;;;;;;;33.67;22.08;;;;;;;;;;5069227;28;20408;-77
2023/12/06 09:45:23;;;;;;;38.33;22.83;;;;;;;;;;5071605;28;20795;-77
2023/12/06 09:47:49;;;;;;;36.35;22.33;;;;;;;;;;5068599;28;20435;-77
2023/12/06 09:50:15;;;;;;;33.72;21.17;;;;;;;;;;5074388;28;20417;-77
2023/12/06 09:52:41;;;;;;;35.53;22.10;;;;;;;;;;5064155;28;20428;-77
2023/12/06 09:55:07;;;;;;;36.95;22.60;;;;;;;;;;5078421;28;20420;-77
2023/12/06 09:57:34;;;;;;;36.50;22.42;;;;;;;;;;5101777;28;20477;-77
2023/12/06 10:00:00;;;;;;;35.03;21.35;;;;;;;;;;5066489;28;20405;-77
2023/12/06 10:02:26;;;;;;;36.00;22.43;;;;;;;;;;5069215;28;20399;-77
2023/12/06 10:04:52;;;;;;;34.97;22.42;;;;;;;;;;5084737;28;20416;-77
2023/12/06 10:07:20;;;;;;;35.67;22.20;;;;;;;;;;5055680;28;20942;-76
2023/12/06 10:09:50;;;;;;;32.60;21.90;;;;;;;;;;5065723;28;20981;-76
2023/12/06 10:12:16;;;;;;;36.00;22.45;;;;;;;;;;5082325;28;20422;-76
2023/12/06 10:14:42;;;;;;;32.33;21.27;;;;;;;;;;5084506;28;20419;-76
2023/12/06 10:17:11;;;;;;;34.22;21.77;;;;;;;;;;5069474;28;20957;-76
2023/12/06 10:19:37;;;;;;;29.75;20.98;;;;;;;;;;5086599;28;20470;-78
2023/12/06 10:22:05;;;;;;;36.97;21.33;;;;;;;;;;5052412;28;20432;-77
2023/12/06 10:24:31;;;;;;;32.43;21.73;;;;;;;;;;5068846;28;20391;-77
2023/12/06 10:27:02;;;;;;;41.25;20.65;;;;;;;;;;5064051;28;20490;-77
2023/12/06 10:29:29;;;;;;;32.88;21.13;;;;;;;;;;5046539;28;20793;-77
2023/12/06 10:31:55;;;;;;;30.77;20.08;;;;;;;;;;5054356;28;20537;-77
2023/12/06 10:34:21;;;;;;;31.23;19.60;;;;;;;;;;5072427;28;20427;-77
2023/12/06 10:36:47;;;;;;;26.17;18.98;;;;;;;;;;5060211;28;20453;-77
2023/12/06 10:39:14;;;;;;;28.27;20.00;;;;;;;;;;5088990;28;20475;-76
2023/12/06 10:41:42;;;;;;;28.75;18.90;;;;;;;;;;5071728;28;20407;-76
2023/12/06 10:44:10;;;;;;;29.95;19.42;;;;;;;;;;5072495;28;20431;-76
2023/12/06 10:46:37;;;;;;;28.27;18.05;;;;;;;;;;5106106;28;20403;-76
2023/12/06 10:49:04;;;;;;;26.10;18.05;;;;;;;;;;5088191;28;20891;-77
2023/12/06 10:51:30;;;;;;;26.33;17.88;;;;;;;;;;5044724;28;20432;-77
2023/12/06 10:53:59;;;;;;;29.42;19.08;;;;;;;;;;5071863;28;20415;-76
2023/12/06 10:56:27;;;;;;;28.45;19.17;;;;;;;;;;5053215;28;20416;-77
2023/12/06 10:58:56;;;;;;;26.88;17.80;;;;;;;;;;5086255;28;20431;-85
2023/12/06 11:01:24;;;;;;;26.25;17.10;;;;;;;;;;5077090;28;20396;-82
2023/12/06 11:03:51;;;;;;;25.70;17.30;;;;;;;;;;5081649;28;20880;-82
2023/12/06 11:06:23;;;;;;;23.63;16.75;;;;;;;;;;5092190;28;20786;-82
2023/12/06 11:08:50;;;;;;;24.23;16.95;;;;;;;;;;5074772;28;20422;-83
2023/12/06 11:11:38;;;;;;;22.50;15.77;;;;;;;;;;5102997;28;20961;-83
2023/12/06 11:14:17;;;;;;;24.27;16.45;;;;;;;;;;5062365;28;20402;-82
2023/12/06 11:17:04;;;;;;;22.17;15.35;;;;;;;;;;5075502;28;20435;-83
2023/12/06 11:19:30;;;;;;;22.30;15.60;;;;;;;;;;5073680;28;20434;-82
2023/12/06 11:21:56;;;;;;;22.10;15.50;;;;;;;;;;5073469;28;20874;-82
2023/12/06 11:24:22;;;;;;;22.75;15.85;;;;;;;;;;5059985;28;20406;-82
2023/12/06 11:26:50;;;;;;;23.05;15.27;;;;;;;;;;5080807;28;20425;-82
2023/12/06 11:29:16;;;;;;;22.70;15.70;;;;;;;;;;5073440;28;20732;-81
2023/12/06 11:31:43;;;;;;;22.53;15.37;;;;;;;;;;5059989;28;20481;-82
2023/12/06 11:34:10;;;;;;;21.83;15.40;;;;;;;;;;5059838;28;20830;-80
2023/12/06 11:36:37;;;;;;;22.30;15.52;;;;;;;;;;5073772;28;20412;-82
2023/12/06 11:39:21;;;;;;;26.85;17.23;;;;;;;;;;5056621;28;20404;-81
2023/12/06 11:41:53;;;;;;;22.63;16.15;;;;;;;;;;5052785;28;20398;-81
2023/12/06 11:44:19;;;;;;;22.38;15.57;;;;;;;;;;5065713;28;20407;-83
2023/12/06 11:46:50;;;;;;;24.35;16.65;;;;;;;;;;5059588;28;20488;-83
2023/12/06 11:49:17;;;;;;;26.08;16.67;;;;;;;;;;5069723;28;20409;-82
2023/12/06 11:51:43;;;;;;;24.08;16.15;;;;;;;;;;5103445;28;20443;-81
2023/12/06 11:54:09;;;;;;;22.67;15.87;;;;;;;;;;5083722;28;20494;-81
2023/12/06 11:56:35;;;;;;;25.70;16.10;;;;;;;;;;5072098;28;20480;-82
2023/12/06 11:59:05;;;;;;;23.35;15.77;;;;;;;;;;5060237;28;20425;-83
2023/12/06 12:01:31;;;;;;;24.52;15.70;;;;;;;;;;5070734;28;20395;-83
2023/12/06 12:03:57;;;;;;;23.95;16.58;;;;;;;;;;5070632;28;20403;-81
2023/12/06 12:06:27;;;;;;;23.27;15.65;;;;;;;;;;5072419;28;20926;-83
2023/12/06 12:08:53;;;;;;;21.92;15.50;;;;;;;;;;5075693;28;20415;-82
2023/12/06 12:11:19;;;;;;;23.23;15.38;;;;;;;;;;5077400;28;20398;-81
2023/12/06 12:13:45;;;;;;;24.97;14.80;;;;;;;;;;5058741;28;20443;-81
2023/12/06 12:16:16;;;;;;;20.60;14.98;;;;;;;;;;5071517;28;20435;-75
2023/12/06 12:18:42;;;;;;;22.60;15.93;;;;;;;;;;5070009;28;20404;-76
2023/12/06 12:21:20;;;;;;;26.52;15.55;;;;;;;;;;5060686;28;20412;-76
2023/12/06 12:23:49;;;;;;;23.40;15.98;;;;;;;;;;5104006;28;20464;-76
2023/12/06 12:26:16;;;;;;;24.50;16.27;;;;;;;;;;5053907;28;20871;-76
2023/12/06 12:28:43;;;;;;;25.08;16.80;;;;;;;;;;5084529;28;20442;-76
2023/12/06 12:31:12;;;;;;;25.60;16.55;;;;;;;;;;5063890;28;20436;-76
2023/12/06 12:33:40;;;;;;;25.35;17.02;;;;;;;;;;5074111;28;21181;-76
2023/12/06 12:36:06;;;;;;;24.75;16.17;;;;;;;;;;5086639;28;20424;-76
2023/12/06 12:38:34;;;;;;;23.73;16.55;;;;;;;;;;5086690;28;20410;-76
2023/12/06 12:41:00;;;;;;;24.85;15.95;;;;;;;;;;5068840;28;20403;-76
2023/12/06 12:43:26;;;;;;;24.05;16.02;;;;;;;;;;5054788;28;20398;-76
2023/12/06 12:45:52;;;;;;;24.42;16.35;;;;;;;;;;5053520;28;20404;-76
2023/12/06 12:48:19;;;;;;;24.37;17.13;;;;;;;;;;5081544;28;20934;-76
2023/12/06 12:50:45;;;;;;;27.85;17.20;;;;;;;;;;5071951;28;20438;-76
2023/12/06 12:53:14;;;;;;;25.93;17.23;;;;;;;;;;5069266;28;20439;-76
2023/12/06 12:55:44;;;;;;;25.67;17.58;;;;;;;;;;5052499;28;20538;-76
2023/12/06 12:58:10;;;;;;;26.13;17.40;;;;;;;;;;5052966;28;20411;-76
2023/12/06 13:00:37;;;;;;;27.17;17.90;;;;;;;;;;5069084;28;20396;-76
2023/12/06 13:03:03;;;;;;;26.48;17.45;;;;;;;;;;5088279;28;21475;-76
2023/12/06 13:05:29;;;;;;;28.95;18.23;;;;;;;;;;5069743;28;20423;-76
2023/12/06 13:07:57;;;;;;;26.13;17.48;;;;;;;;;;5053988;28;20411;-76
2023/12/06 13:10:24;;;;;;;26.90;17.40;;;;;;;;;;5053904;28;20408;-76
2023/12/06 13:12:50;;;;;;;31.35;17.92;;;;;;;;;;5070522;28;20903;-76
2023/12/06 13:15:17;;;;;;;25.90;17.27;;;;;;;;;;5075798;28;20414;-76
2023/12/06 13:17:43;;;;;;;27.30;17.73;;;;;;;;;;5073358;28;20419;-76
2023/12/06 13:20:10;;;;;;;24.95;17.48;;;;;;;;;;5070102;28;20411;-76
2023/12/06 13:22:36;;;;;;;29.23;17.87;;;;;;;;;;5069073;28;20422;-76
2023/12/06 13:25:04;;;;;;;26.60;17.15;;;;;;;;;;5061685;28;20455;-76
2023/12/06 13:27:30;;;;;;;23.77;17.23;;;;;;;;;;5069606;28;20443;-76
2023/12/06 13:29:57;;;;;;;27.52;16.80;;;;;;;;;;5073635;28;20944;-76
2023/12/06 13:32:23;;;;;;;25.80;16.80;;;;;;;;;;5051802;28;20410;-76
2023/12/06 13:34:49;;;;;;;23.83;16.85;;;;;;;;;;5072418;28;20418;-77
2023/12/06 13:37:15;;;;;;;25.15;16.75;;;;;;;;;;5064419;28;20499;-76
2023/12/06 13:39:42;;;;;;;27.67;17.52;;;;;;;;;;5049392;28;20408;-76
2023/12/06 13:42:17;;;;;;;25.58;17.33;;;;;;;;;;5051392;28;20442;-76
2023/12/06 13:44:43;;;;;;;27.05;17.30;;;;;;;;;;5085805;28;20413;-76
2023/12/06 13:47:10;;;;;;;27.75;19.45;;;;;;;;;;5054617;28;21909;-77
2023/12/06 13:49:36;;;;;;;30.73;17.13;;;;;;;;;;5068418;28;20552;-76
2023/12/06 13:52:02;;;;;;;23.50;16.38;;;;;;;;;;5086113;28;20403;-77
2023/12/06 13:54:29;;;;;;;23.23;16.20;;;;;;;;;;5069048;28;20424;-77
2023/12/06 13:56:55;;;;;;;23.15;15.63;;;;;;;;;;5067685;28;20498;-77
2023/12/06 13:59:21;;;;;;;21.93;15.57;;;;;;;;;;5052211;28;20399;-77
2023/12/06 14:01:49;;;;;;;22.30;14.90;;;;;;;;;;5102396;28;20566;-77
2023/12/06 14:04:15;;;;;;;21.42;14.82;;;;;;;;;;5069214;28;20412;-77
2023/12/06 14:06:41;;;;;;;27.58;20.23;;;;;;;;;;5085945;28;20404;-77
2023/12/06 14:09:08;;;;;;;101.93;61.87;;;;;;;;;;5073054;28;20542;-77
2023/12/06 14:11:35;;;;;;;36.30;23.88;;;;;;;;;;5049615;28;20752;-77
2023/12/06 14:14:01;;;;;;;20.58;15.25;;;;;;;;;;5055675;28;20410;-77